sensor_id;sensor_type;location;lat;lon;timestamp;P1;durP1;ratioP1;P2;durP2;ratioP2
38318;SDS011;24121;53.536;10.224;2022-12-18T00:01:45;21.45;;;12.38;;
38318;SDS011;24121;53.536;10.224;2022-12-18T00:04:14;21.60;;;12.88;;
38318;SDS011;24121;53.536;10.224;2022-12-18T00:06:43;20.45;;;11.43;;
38318;SDS011;24121;53.536;10.224;2022-12-18T00:09:09;19.13;;;11.93;;
38318;SDS011;24121;53.536;10.224;2022-12-18T00:11:34;20.13;;;11.32;;
38318;SDS011;24121;53.536;10.224;2022-12-18T00:14:00;20.17;;;10.93;;
38318;SDS011;24121;53.536;10.224;2022-12-18T00:16:26;19.40;;;10.48;;
38318;SDS011;24121;53.536;10.224;2022-12-18T00:18:53;17.65;;;11.23;;
38318;SDS011;24121;53.536;10.224;2022-12-18T00:21:20;20.08;;;12.38;;
38318;SDS011;24121;53.536;10.224;2022-12-18T00:23:46;19.27;;;10.70;;
38318;SDS011;24121;53.536;10.224;2022-12-18T00:26:22;19.25;;;11.40;;
38318;SDS011;24121;53.536;10.224;2022-12-18T00:28:49;14.60;;;10.00;;
38318;SDS011;24121;53.536;10.224;2022-12-18T00:31:16;20.98;;;11.00;;
38318;SDS011;24121;53.536;10.224;2022-12-18T00:33:43;21.15;;;11.43;;
38318;SDS011;24121;53.536;10.224;2022-12-18T00:36:12;18.52;;;10.77;;
38318;SDS011;24121;53.536;10.224;2022-12-18T00:38:40;17.63;;;10.30;;
38318;SDS011;24121;53.536;10.224;2022-12-18T00:41:05;18.77;;;11.85;;
38318;SDS011;24121;53.536;10.224;2022-12-18T00:43:31;16.23;;;9.60;;
38318;SDS011;24121;53.536;10.224;2022-12-18T00:45:59;17.15;;;9.77;;
38318;SDS011;24121;53.536;10.224;2022-12-18T00:48:24;17.55;;;10.77;;
38318;SDS011;24121;53.536;10.224;2022-12-18T00:50:50;21.25;;;11.40;;
38318;SDS011;24121;53.536;10.224;2022-12-18T00:53:15;17.40;;;9.82;;
38318;SDS011;24121;53.536;10.224;2022-12-18T00:55:41;17.38;;;9.98;;
38318;SDS011;24121;53.536;10.224;2022-12-18T00:58:07;18.98;;;10.38;;
38318;SDS011;24121;53.536;10.224;2022-12-18T01:00:33;17.52;;;10.10;;
38318;SDS011;24121;53.536;10.224;2022-12-18T01:02:58;14.45;;;9.90;;
38318;SDS011;24121;53.536;10.224;2022-12-18T01:05:24;20.85;;;9.98;;
38318;SDS011;24121;53.536;10.224;2022-12-18T01:07:50;19.70;;;10.45;;
38318;SDS011;24121;53.536;10.224;2022-12-18T01:10:15;15.13;;;9.68;;
38318;SDS011;24121;53.536;10.224;2022-12-18T01:12:40;18.17;;;9.80;;
38318;SDS011;24121;53.536;10.224;2022-12-18T01:15:06;17.98;;;10.00;;
38318;SDS011;24121;53.536;10.224;2022-12-18T01:17:34;17.40;;;9.15;;
38318;SDS011;24121;53.536;10.224;2022-12-18T01:20:00;17.30;;;10.10;;
38318;SDS011;24121;53.536;10.224;2022-12-18T01:22:25;15.65;;;9.45;;
38318;SDS011;24121;53.536;10.224;2022-12-18T01:24:50;16.42;;;9.68;;
38318;SDS011;24121;53.536;10.224;2022-12-18T01:27:16;20.60;;;10.10;;
38318;SDS011;24121;53.536;10.224;2022-12-18T01:29:41;17.13;;;9.68;;
38318;SDS011;24121;53.536;10.224;2022-12-18T01:32:07;14.88;;;9.60;;
38318;SDS011;24121;53.536;10.224;2022-12-18T01:34:32;14.20;;;9.80;;
38318;SDS011;24121;53.536;10.224;2022-12-18T01:36:59;16.13;;;9.15;;
38318;SDS011;24121;53.536;10.224;2022-12-18T01:39:27;14.95;;;8.75;;
38318;SDS011;24121;53.536;10.224;2022-12-18T01:41:53;14.07;;;9.32;;
38318;SDS011;24121;53.536;10.224;2022-12-18T01:47:21;16.25;;;8.95;;
38318;SDS011;24121;53.536;10.224;2022-12-18T01:52:43;16.15;;;9.52;;
38318;SDS011;24121;53.536;10.224;2022-12-18T01:55:16;12.55;;;8.70;;
38318;SDS011;24121;53.536;10.224;2022-12-18T01:57:43;13.65;;;9.02;;
38318;SDS011;24121;53.536;10.224;2022-12-18T02:00:10;16.80;;;10.30;;
38318;SDS011;24121;53.536;10.224;2022-12-18T02:02:37;20.58;;;9.38;;
38318;SDS011;24121;53.536;10.224;2022-12-18T02:05:04;17.17;;;9.40;;
38318;SDS011;24121;53.536;10.224;2022-12-18T02:10:24;17.10;;;9.45;;
38318;SDS011;24121;53.536;10.224;2022-12-18T02:12:56;16.60;;;9.15;;
38318;SDS011;24121;53.536;10.224;2022-12-18T02:18:16;14.50;;;8.77;;
38318;SDS011;24121;53.536;10.224;2022-12-18T02:20:46;14.73;;;8.43;;
38318;SDS011;24121;53.536;10.224;2022-12-18T02:26:08;14.70;;;8.88;;
38318;SDS011;24121;53.536;10.224;2022-12-18T02:28:52;11.93;;;8.13;;
38318;SDS011;24121;53.536;10.224;2022-12-18T02:31:24;15.05;;;8.55;;
38318;SDS011;24121;53.536;10.224;2022-12-18T02:33:52;14.90;;;9.02;;
38318;SDS011;24121;53.536;10.224;2022-12-18T02:36:18;14.52;;;8.88;;
38318;SDS011;24121;53.536;10.224;2022-12-18T02:38:45;14.20;;;8.63;;
38318;SDS011;24121;53.536;10.224;2022-12-18T02:41:11;14.45;;;8.68;;
38318;SDS011;24121;53.536;10.224;2022-12-18T02:43:38;16.00;;;9.02;;
38318;SDS011;24121;53.536;10.224;2022-12-18T02:48:57;13.80;;;8.02;;
38318;SDS011;24121;53.536;10.224;2022-12-18T02:51:32;13.70;;;8.25;;
38318;SDS011;24121;53.536;10.224;2022-12-18T02:54:07;14.57;;;8.75;;
38318;SDS011;24121;53.536;10.224;2022-12-18T02:56:35;16.90;;;9.18;;
38318;SDS011;24121;53.536;10.224;2022-12-18T03:04:20;16.90;;;8.77;;
38318;SDS011;24121;53.536;10.224;2022-12-18T03:07:05;13.93;;;8.07;;
38318;SDS011;24121;53.536;10.224;2022-12-18T03:09:36;14.07;;;8.65;;
38318;SDS011;24121;53.536;10.224;2022-12-18T03:12:10;14.55;;;8.95;;
38318;SDS011;24121;53.536;10.224;2022-12-18T03:20:12;13.98;;;8.27;;
38318;SDS011;24121;53.536;10.224;2022-12-18T03:22:40;11.95;;;8.13;;
38318;SDS011;24121;53.536;10.224;2022-12-18T03:25:09;13.57;;;8.25;;
38318;SDS011;24121;53.536;10.224;2022-12-18T03:27:36;13.65;;;7.80;;
38318;SDS011;24121;53.536;10.224;2022-12-18T03:30:04;15.18;;;8.18;;
38318;SDS011;24121;53.536;10.224;2022-12-18T03:32:46;15.25;;;8.50;;
38318;SDS011;24121;53.536;10.224;2022-12-18T03:35:20;14.23;;;7.88;;
38318;SDS011;24121;53.536;10.224;2022-12-18T03:37:47;12.07;;;8.00;;
38318;SDS011;24121;53.536;10.224;2022-12-18T03:40:13;13.45;;;7.90;;
38318;SDS011;24121;53.536;10.224;2022-12-18T03:48:02;14.57;;;8.73;;
38318;SDS011;24121;53.536;10.224;2022-12-18T03:53:36;12.90;;;8.02;;
38318;SDS011;24121;53.536;10.224;2022-12-18T03:56:06;12.63;;;7.82;;
38318;SDS011;24121;53.536;10.224;2022-12-18T03:58:33;12.00;;;7.50;;
38318;SDS011;24121;53.536;10.224;2022-12-18T04:01:01;12.38;;;8.00;;
38318;SDS011;24121;53.536;10.224;2022-12-18T04:03:28;14.73;;;9.15;;
38318;SDS011;24121;53.536;10.224;2022-12-18T04:05:55;13.57;;;8.40;;
38318;SDS011;24121;53.536;10.224;2022-12-18T04:08:21;13.60;;;8.77;;
38318;SDS011;24121;53.536;10.224;2022-12-18T04:10:47;19.42;;;9.70;;
38318;SDS011;24121;53.536;10.224;2022-12-18T04:13:12;14.00;;;8.02;;
38318;SDS011;24121;53.536;10.224;2022-12-18T04:15:37;13.60;;;8.27;;
38318;SDS011;24121;53.536;10.224;2022-12-18T04:18:03;15.52;;;8.73;;
38318;SDS011;24121;53.536;10.224;2022-12-18T04:20:28;17.13;;;9.30;;
38318;SDS011;24121;53.536;10.224;2022-12-18T04:22:54;16.30;;;9.38;;
38318;SDS011;24121;53.536;10.224;2022-12-18T04:25:19;15.30;;;9.35;;
38318;SDS011;24121;53.536;10.224;2022-12-18T04:27:44;17.33;;;9.23;;
38318;SDS011;24121;53.536;10.224;2022-12-18T04:30:10;16.83;;;9.65;;
38318;SDS011;24121;53.536;10.224;2022-12-18T04:32:35;14.43;;;8.85;;
38318;SDS011;24121;53.536;10.224;2022-12-18T04:35:01;15.07;;;8.82;;
38318;SDS011;24121;53.536;10.224;2022-12-18T04:37:26;16.17;;;9.25;;
38318;SDS011;24121;53.536;10.224;2022-12-18T04:39:51;16.65;;;9.90;;
38318;SDS011;24121;53.536;10.224;2022-12-18T04:42:17;15.60;;;9.48;;
38318;SDS011;24121;53.536;10.224;2022-12-18T04:44:42;15.40;;;9.82;;
38318;SDS011;24121;53.536;10.224;2022-12-18T04:47:07;16.10;;;9.68;;
38318;SDS011;24121;53.536;10.224;2022-12-18T04:49:33;15.35;;;9.48;;
38318;SDS011;24121;53.536;10.224;2022-12-18T04:51:58;17.52;;;9.77;;
38318;SDS011;24121;53.536;10.224;2022-12-18T04:54:23;15.75;;;9.73;;
38318;SDS011;24121;53.536;10.224;2022-12-18T04:56:49;17.10;;;10.18;;
38318;SDS011;24121;53.536;10.224;2022-12-18T04:59:14;17.55;;;9.95;;
38318;SDS011;24121;53.536;10.224;2022-12-18T05:01:39;15.82;;;10.80;;
38318;SDS011;24121;53.536;10.224;2022-12-18T05:04:04;17.08;;;10.63;;
38318;SDS011;24121;53.536;10.224;2022-12-18T05:06:30;15.55;;;9.80;;
38318;SDS011;24121;53.536;10.224;2022-12-18T05:08:55;16.98;;;9.48;;
38318;SDS011;24121;53.536;10.224;2022-12-18T05:11:21;19.60;;;10.65;;
38318;SDS011;24121;53.536;10.224;2022-12-18T05:13:46;16.92;;;10.18;;
38318;SDS011;24121;53.536;10.224;2022-12-18T05:16:12;16.80;;;9.85;;
38318;SDS011;24121;53.536;10.224;2022-12-18T05:18:37;17.88;;;9.98;;
38318;SDS011;24121;53.536;10.224;2022-12-18T05:21:03;15.32;;;9.60;;
38318;SDS011;24121;53.536;10.224;2022-12-18T05:23:29;14.45;;;8.88;;
38318;SDS011;24121;53.536;10.224;2022-12-18T05:25:58;15.48;;;9.27;;
38318;SDS011;24121;53.536;10.224;2022-12-18T05:28:25;18.65;;;10.40;;
38318;SDS011;24121;53.536;10.224;2022-12-18T05:30:52;15.82;;;9.90;;
38318;SDS011;24121;53.536;10.224;2022-12-18T05:33:19;14.65;;;9.77;;
38318;SDS011;24121;53.536;10.224;2022-12-18T05:35:49;15.88;;;10.02;;
38318;SDS011;24121;53.536;10.224;2022-12-18T05:38:15;17.60;;;9.73;;
38318;SDS011;24121;53.536;10.224;2022-12-18T05:40:41;16.73;;;9.38;;
38318;SDS011;24121;53.536;10.224;2022-12-18T05:43:07;15.93;;;10.23;;
38318;SDS011;24121;53.536;10.224;2022-12-18T05:45:36;15.93;;;9.80;;
38318;SDS011;24121;53.536;10.224;2022-12-18T05:48:02;13.32;;;9.07;;
38318;SDS011;24121;53.536;10.224;2022-12-18T05:50:27;16.98;;;10.27;;
38318;SDS011;24121;53.536;10.224;2022-12-18T05:52:52;15.63;;;9.60;;
38318;SDS011;24121;53.536;10.224;2022-12-18T05:55:18;16.15;;;9.52;;
38318;SDS011;24121;53.536;10.224;2022-12-18T05:57:43;19.42;;;10.02;;
38318;SDS011;24121;53.536;10.224;2022-12-18T06:00:09;14.43;;;9.43;;
38318;SDS011;24121;53.536;10.224;2022-12-18T06:02:34;19.60;;;9.43;;
38318;SDS011;24121;53.536;10.224;2022-12-18T06:05:00;15.85;;;9.45;;
38318;SDS011;24121;53.536;10.224;2022-12-18T06:07:25;17.45;;;9.50;;
38318;SDS011;24121;53.536;10.224;2022-12-18T06:09:50;18.92;;;10.68;;
38318;SDS011;24121;53.536;10.224;2022-12-18T06:12:16;20.13;;;10.32;;
38318;SDS011;24121;53.536;10.224;2022-12-18T06:14:41;18.85;;;10.05;;
38318;SDS011;24121;53.536;10.224;2022-12-18T06:17:06;16.63;;;9.88;;
38318;SDS011;24121;53.536;10.224;2022-12-18T06:19:32;17.13;;;10.23;;
38318;SDS011;24121;53.536;10.224;2022-12-18T06:21:57;17.27;;;10.20;;
38318;SDS011;24121;53.536;10.224;2022-12-18T06:24:23;19.98;;;11.30;;
38318;SDS011;24121;53.536;10.224;2022-12-18T06:26:49;13.88;;;9.32;;
38318;SDS011;24121;53.536;10.224;2022-12-18T06:29:14;17.05;;;9.80;;
38318;SDS011;24121;53.536;10.224;2022-12-18T06:31:39;15.77;;;9.57;;
38318;SDS011;24121;53.536;10.224;2022-12-18T06:34:05;16.60;;;9.65;;
38318;SDS011;24121;53.536;10.224;2022-12-18T06:36:30;18.35;;;10.02;;
38318;SDS011;24121;53.536;10.224;2022-12-18T06:38:55;17.38;;;9.70;;
38318;SDS011;24121;53.536;10.224;2022-12-18T06:41:21;17.60;;;10.07;;
38318;SDS011;24121;53.536;10.224;2022-12-18T06:43:47;20.02;;;10.52;;
38318;SDS011;24121;53.536;10.224;2022-12-18T06:46:12;19.63;;;10.52;;
38318;SDS011;24121;53.536;10.224;2022-12-18T06:48:38;17.73;;;10.10;;
38318;SDS011;24121;53.536;10.224;2022-12-18T06:51:03;16.90;;;10.80;;
38318;SDS011;24121;53.536;10.224;2022-12-18T06:53:29;16.25;;;10.23;;
38318;SDS011;24121;53.536;10.224;2022-12-18T06:56:01;16.48;;;9.90;;
38318;SDS011;24121;53.536;10.224;2022-12-18T06:58:27;16.63;;;10.40;;
38318;SDS011;24121;53.536;10.224;2022-12-18T07:00:53;16.77;;;9.88;;
38318;SDS011;24121;53.536;10.224;2022-12-18T07:03:18;18.70;;;10.30;;
38318;SDS011;24121;53.536;10.224;2022-12-18T07:05:43;16.15;;;10.50;;
38318;SDS011;24121;53.536;10.224;2022-12-18T07:08:09;20.85;;;11.70;;
38318;SDS011;24121;53.536;10.224;2022-12-18T07:10:40;17.55;;;11.18;;
38318;SDS011;24121;53.536;10.224;2022-12-18T07:13:06;16.25;;;10.48;;
38318;SDS011;24121;53.536;10.224;2022-12-18T07:15:31;20.08;;;11.15;;
38318;SDS011;24121;53.536;10.224;2022-12-18T07:17:56;19.50;;;11.68;;
38318;SDS011;24121;53.536;10.224;2022-12-18T07:20:22;20.33;;;10.57;;
38318;SDS011;24121;53.536;10.224;2022-12-18T07:22:47;19.02;;;11.07;;
38318;SDS011;24121;53.536;10.224;2022-12-18T07:25:12;20.77;;;11.77;;
38318;SDS011;24121;53.536;10.224;2022-12-18T07:27:38;21.30;;;11.32;;
38318;SDS011;24121;53.536;10.224;2022-12-18T07:30:03;19.30;;;11.55;;
38318;SDS011;24121;53.536;10.224;2022-12-18T07:32:29;20.83;;;11.90;;
38318;SDS011;24121;53.536;10.224;2022-12-18T07:34:55;20.35;;;11.15;;
38318;SDS011;24121;53.536;10.224;2022-12-18T07:37:20;20.00;;;11.77;;
38318;SDS011;24121;53.536;10.224;2022-12-18T07:39:46;20.92;;;11.35;;
38318;SDS011;24121;53.536;10.224;2022-12-18T07:42:11;19.20;;;11.68;;
38318;SDS011;24121;53.536;10.224;2022-12-18T07:44:55;20.73;;;11.63;;
38318;SDS011;24121;53.536;10.224;2022-12-18T07:47:20;20.48;;;12.40;;
38318;SDS011;24121;53.536;10.224;2022-12-18T07:49:45;19.35;;;11.57;;
38318;SDS011;24121;53.536;10.224;2022-12-18T07:52:11;24.73;;;12.75;;
38318;SDS011;24121;53.536;10.224;2022-12-18T07:54:37;20.52;;;12.18;;
38318;SDS011;24121;53.536;10.224;2022-12-18T07:57:02;21.42;;;11.82;;
38318;SDS011;24121;53.536;10.224;2022-12-18T07:59:28;20.02;;;11.23;;
38318;SDS011;24121;53.536;10.224;2022-12-18T08:01:53;24.45;;;12.82;;
38318;SDS011;24121;53.536;10.224;2022-12-18T08:04:18;21.23;;;11.80;;
38318;SDS011;24121;53.536;10.224;2022-12-18T08:06:43;21.63;;;12.63;;
38318;SDS011;24121;53.536;10.224;2022-12-18T08:09:09;20.02;;;11.13;;
38318;SDS011;24121;53.536;10.224;2022-12-18T08:11:34;21.70;;;11.18;;
38318;SDS011;24121;53.536;10.224;2022-12-18T08:14:00;20.85;;;11.75;;
38318;SDS011;24121;53.536;10.224;2022-12-18T08:16:25;18.63;;;11.40;;
38318;SDS011;24121;53.536;10.224;2022-12-18T08:18:51;20.90;;;11.63;;
38318;SDS011;24121;53.536;10.224;2022-12-18T08:21:19;18.45;;;11.02;;
38318;SDS011;24121;53.536;10.224;2022-12-18T08:26:13;18.52;;;11.93;;
38318;SDS011;24121;53.536;10.224;2022-12-18T08:28:39;19.45;;;11.25;;
38318;SDS011;24121;53.536;10.224;2022-12-18T08:31:05;20.25;;;10.98;;
38318;SDS011;24121;53.536;10.224;2022-12-18T08:33:30;22.50;;;11.65;;
38318;SDS011;24121;53.536;10.224;2022-12-18T08:35:55;20.15;;;12.15;;
38318;SDS011;24121;53.536;10.224;2022-12-18T08:38:21;22.02;;;12.05;;
38318;SDS011;24121;53.536;10.224;2022-12-18T08:40:47;21.05;;;11.52;;
38318;SDS011;24121;53.536;10.224;2022-12-18T08:43:13;18.33;;;11.48;;
38318;SDS011;24121;53.536;10.224;2022-12-18T08:45:56;25.90;;;12.30;;
38318;SDS011;24121;53.536;10.224;2022-12-18T08:48:22;21.25;;;11.98;;
38318;SDS011;24121;53.536;10.224;2022-12-18T08:50:57;20.83;;;12.20;;
38318;SDS011;24121;53.536;10.224;2022-12-18T08:53:26;20.77;;;11.90;;
38318;SDS011;24121;53.536;10.224;2022-12-18T08:55:52;20.58;;;11.57;;
38318;SDS011;24121;53.536;10.224;2022-12-18T08:58:17;20.95;;;11.77;;
38318;SDS011;24121;53.536;10.224;2022-12-18T09:00:43;24.90;;;12.63;;
38318;SDS011;24121;53.536;10.224;2022-12-18T09:03:15;24.20;;;12.57;;
38318;SDS011;24121;53.536;10.224;2022-12-18T09:05:42;21.02;;;11.80;;
38318;SDS011;24121;53.536;10.224;2022-12-18T09:08:07;18.90;;;11.43;;
38318;SDS011;24121;53.536;10.224;2022-12-18T09:10:33;22.50;;;11.10;;
38318;SDS011;24121;53.536;10.224;2022-12-18T09:12:58;22.70;;;12.50;;
38318;SDS011;24121;53.536;10.224;2022-12-18T09:15:24;20.60;;;11.50;;
38318;SDS011;24121;53.536;10.224;2022-12-18T09:17:50;22.60;;;12.25;;
38318;SDS011;24121;53.536;10.224;2022-12-18T09:20:15;19.42;;;11.20;;
38318;SDS011;24121;53.536;10.224;2022-12-18T09:22:41;24.35;;;11.55;;
38318;SDS011;24121;53.536;10.224;2022-12-18T09:25:07;17.75;;;10.73;;
38318;SDS011;24121;53.536;10.224;2022-12-18T09:27:33;19.35;;;11.70;;
38318;SDS011;24121;53.536;10.224;2022-12-18T09:29:58;18.58;;;11.20;;
38318;SDS011;24121;53.536;10.224;2022-12-18T09:32:24;22.50;;;12.38;;
38318;SDS011;24121;53.536;10.224;2022-12-18T09:34:49;19.92;;;11.25;;
38318;SDS011;24121;53.536;10.224;2022-12-18T09:37:15;20.92;;;12.45;;
38318;SDS011;24121;53.536;10.224;2022-12-18T09:39:41;21.77;;;11.77;;
38318;SDS011;24121;53.536;10.224;2022-12-18T09:42:06;21.55;;;12.57;;
38318;SDS011;24121;53.536;10.224;2022-12-18T09:44:44;21.10;;;11.88;;
38318;SDS011;24121;53.536;10.224;2022-12-18T09:47:19;18.65;;;11.35;;
38318;SDS011;24121;53.536;10.224;2022-12-18T09:50:01;20.98;;;12.00;;
38318;SDS011;24121;53.536;10.224;2022-12-18T09:52:30;22.55;;;13.02;;
38318;SDS011;24121;53.536;10.224;2022-12-18T09:55:00;19.35;;;12.68;;
38318;SDS011;24121;53.536;10.224;2022-12-18T10:00:36;21.13;;;12.25;;
38318;SDS011;24121;53.536;10.224;2022-12-18T10:02:44;22.38;;;13.70;;
38318;SDS011;24121;53.536;10.224;2022-12-18T10:05:14;23.48;;;13.18;;
38318;SDS011;24121;53.536;10.224;2022-12-18T10:13:03;21.63;;;12.38;;
38318;SDS011;24121;53.536;10.224;2022-12-18T10:15:36;23.45;;;12.73;;
38318;SDS011;24121;53.536;10.224;2022-12-18T10:18:25;21.05;;;12.35;;
38318;SDS011;24121;53.536;10.224;2022-12-18T10:21:13;21.98;;;12.48;;
38318;SDS011;24121;53.536;10.224;2022-12-18T10:26:25;22.40;;;12.80;;
38318;SDS011;24121;53.536;10.224;2022-12-18T10:28:50;21.05;;;11.93;;
38318;SDS011;24121;53.536;10.224;2022-12-18T10:31:17;20.23;;;12.35;;
38318;SDS011;24121;53.536;10.224;2022-12-18T10:33:43;21.95;;;12.77;;
38318;SDS011;24121;53.536;10.224;2022-12-18T10:36:09;19.35;;;11.98;;
38318;SDS011;24121;53.536;10.224;2022-12-18T10:38:34;20.75;;;11.43;;
38318;SDS011;24121;53.536;10.224;2022-12-18T10:43:29;19.20;;;11.45;;
38318;SDS011;24121;53.536;10.224;2022-12-18T10:51:16;19.35;;;11.25;;
38318;SDS011;24121;53.536;10.224;2022-12-18T10:53:51;20.40;;;11.93;;
38318;SDS011;24121;53.536;10.224;2022-12-18T10:56:19;23.88;;;12.75;;
38318;SDS011;24121;53.536;10.224;2022-12-18T10:58:46;23.02;;;11.77;;
38318;SDS011;24121;53.536;10.224;2022-12-18T11:01:24;23.37;;;11.77;;
38318;SDS011;24121;53.536;10.224;2022-12-18T11:06:16;19.58;;;12.40;;
38318;SDS011;24121;53.536;10.224;2022-12-18T11:08:43;22.48;;;12.52;;
38318;SDS011;24121;53.536;10.224;2022-12-18T11:11:19;24.40;;;13.15;;
38318;SDS011;24121;53.536;10.224;2022-12-18T11:16:26;23.05;;;12.80;;
38318;SDS011;24121;53.536;10.224;2022-12-18T11:18:52;23.90;;;13.07;;
38318;SDS011;24121;53.536;10.224;2022-12-18T11:21:17;18.88;;;11.27;;
38318;SDS011;24121;53.536;10.224;2022-12-18T11:23:46;23.02;;;12.50;;
38318;SDS011;24121;53.536;10.224;2022-12-18T11:26:14;21.27;;;12.32;;
38318;SDS011;24121;53.536;10.224;2022-12-18T11:28:47;23.52;;;13.23;;
38318;SDS011;24121;53.536;10.224;2022-12-18T11:33:41;29.20;;;12.68;;
38318;SDS011;24121;53.536;10.224;2022-12-18T11:36:07;24.35;;;11.88;;
38318;SDS011;24121;53.536;10.224;2022-12-18T11:38:40;19.67;;;12.20;;
38318;SDS011;24121;53.536;10.224;2022-12-18T11:44:45;22.25;;;12.13;;
38318;SDS011;24121;53.536;10.224;2022-12-18T11:47:15;24.02;;;12.73;;
38318;SDS011;24121;53.536;10.224;2022-12-18T11:49:51;21.55;;;13.30;;
38318;SDS011;24121;53.536;10.224;2022-12-18T11:52:28;20.02;;;12.57;;
38318;SDS011;24121;53.536;10.224;2022-12-18T11:54:58;21.60;;;13.00;;
38318;SDS011;24121;53.536;10.224;2022-12-18T11:57:31;20.73;;;11.90;;
38318;SDS011;24121;53.536;10.224;2022-12-18T12:08:55;24.40;;;12.65;;
38318;SDS011;24121;53.536;10.224;2022-12-18T12:16:57;23.65;;;12.45;;
38318;SDS011;24121;53.536;10.224;2022-12-18T12:27:18;22.88;;;12.13;;
38318;SDS011;24121;53.536;10.224;2022-12-18T12:30:03;22.33;;;12.52;;
38318;SDS011;24121;53.536;10.224;2022-12-18T12:32:37;23.85;;;12.88;;
38318;SDS011;24121;53.536;10.224;2022-12-18T12:38:16;27.25;;;13.43;;
38318;SDS011;24121;53.536;10.224;2022-12-18T12:40:54;24.83;;;13.15;;
38318;SDS011;24121;53.536;10.224;2022-12-18T12:48:35;20.42;;;11.63;;
38318;SDS011;24121;53.536;10.224;2022-12-18T12:51:08;21.50;;;11.85;;
38318;SDS011;24121;53.536;10.224;2022-12-18T12:53:36;25.80;;;13.25;;
38318;SDS011;24121;53.536;10.224;2022-12-18T12:56:03;27.02;;;13.00;;
38318;SDS011;24121;53.536;10.224;2022-12-18T12:58:32;27.42;;;14.52;;
38318;SDS011;24121;53.536;10.224;2022-12-18T13:01:05;26.90;;;12.55;;
38318;SDS011;24121;53.536;10.224;2022-12-18T13:07:17;20.60;;;11.77;;
38318;SDS011;24121;53.536;10.224;2022-12-18T13:09:19;20.77;;;11.63;;
38318;SDS011;24121;53.536;10.224;2022-12-18T13:11:45;20.83;;;11.90;;
38318;SDS011;24121;53.536;10.224;2022-12-18T13:14:30;20.92;;;11.68;;
38318;SDS011;24121;53.536;10.224;2022-12-18T13:25:00;22.40;;;11.15;;
38318;SDS011;24121;53.536;10.224;2022-12-18T13:33:43;19.30;;;10.55;;
38318;SDS011;24121;53.536;10.224;2022-12-18T13:45:45;20.63;;;10.70;;
38318;SDS011;24121;53.536;10.224;2022-12-18T13:48:26;23.00;;;11.95;;
38318;SDS011;24121;53.536;10.224;2022-12-18T13:50:59;26.33;;;13.20;;
38318;SDS011;24121;53.536;10.224;2022-12-18T13:53:30;24.13;;;12.95;;
38318;SDS011;24121;53.536;10.224;2022-12-18T13:58:33;25.58;;;12.43;;
38318;SDS011;24121;53.536;10.224;2022-12-18T14:00:58;24.52;;;12.85;;
38318;SDS011;24121;53.536;10.224;2022-12-18T14:03:25;26.50;;;13.38;;
38318;SDS011;24121;53.536;10.224;2022-12-18T14:05:53;25.05;;;11.18;;
38318;SDS011;24121;53.536;10.224;2022-12-18T14:08:20;24.02;;;11.75;;
38318;SDS011;24121;53.536;10.224;2022-12-18T14:10:46;24.70;;;13.35;;
38318;SDS011;24121;53.536;10.224;2022-12-18T14:13:35;29.17;;;14.43;;
38318;SDS011;24121;53.536;10.224;2022-12-18T14:16:01;24.60;;;13.02;;
38318;SDS011;24121;53.536;10.224;2022-12-18T14:18:42;25.08;;;12.77;;
38318;SDS011;24121;53.536;10.224;2022-12-18T14:21:17;25.77;;;14.05;;
38318;SDS011;24121;53.536;10.224;2022-12-18T14:23:46;27.00;;;14.38;;
38318;SDS011;24121;53.536;10.224;2022-12-18T14:26:19;28.30;;;13.65;;
38318;SDS011;24121;53.536;10.224;2022-12-18T14:28:54;26.88;;;14.18;;
38318;SDS011;24121;53.536;10.224;2022-12-18T14:31:24;26.53;;;12.67;;
38318;SDS011;24121;53.536;10.224;2022-12-18T14:33:51;30.70;;;14.73;;
38318;SDS011;24121;53.536;10.224;2022-12-18T14:36:18;26.92;;;14.10;;
38318;SDS011;24121;53.536;10.224;2022-12-18T14:38:48;30.55;;;14.63;;
38318;SDS011;24121;53.536;10.224;2022-12-18T14:41:15;28.87;;;14.63;;
38318;SDS011;24121;53.536;10.224;2022-12-18T14:43:45;30.80;;;14.52;;
38318;SDS011;24121;53.536;10.224;2022-12-18T14:48:49;29.65;;;14.70;;
38318;SDS011;24121;53.536;10.224;2022-12-18T14:51:19;32.78;;;15.70;;
38318;SDS011;24121;53.536;10.224;2022-12-18T14:56:22;29.95;;;13.75;;
38318;SDS011;24121;53.536;10.224;2022-12-18T14:58:52;29.83;;;15.45;;
38318;SDS011;24121;53.536;10.224;2022-12-18T15:04:03;33.30;;;16.27;;
38318;SDS011;24121;53.536;10.224;2022-12-18T15:08:57;30.42;;;15.80;;
38318;SDS011;24121;53.536;10.224;2022-12-18T15:16:52;29.40;;;14.68;;
38318;SDS011;24121;53.536;10.224;2022-12-18T15:19:19;34.13;;;15.95;;
38318;SDS011;24121;53.536;10.224;2022-12-18T15:21:45;33.85;;;16.35;;
38318;SDS011;24121;53.536;10.224;2022-12-18T15:24:18;36.75;;;17.17;;
38318;SDS011;24121;53.536;10.224;2022-12-18T15:26:48;35.80;;;16.85;;
38318;SDS011;24121;53.536;10.224;2022-12-18T15:29:23;36.08;;;16.42;;
38318;SDS011;24121;53.536;10.224;2022-12-18T15:34:26;37.80;;;17.58;;
38318;SDS011;24121;53.536;10.224;2022-12-18T15:36:52;35.55;;;17.35;;
38318;SDS011;24121;53.536;10.224;2022-12-18T15:39:18;37.17;;;17.73;;
38318;SDS011;24121;53.536;10.224;2022-12-18T15:41:43;40.00;;;16.75;;
38318;SDS011;24121;53.536;10.224;2022-12-18T15:44:29;33.40;;;17.33;;
38318;SDS011;24121;53.536;10.224;2022-12-18T15:46:55;36.60;;;17.70;;
38318;SDS011;24121;53.536;10.224;2022-12-18T15:49:21;38.08;;;16.77;;
38318;SDS011;24121;53.536;10.224;2022-12-18T15:51:48;38.70;;;17.77;;
38318;SDS011;24121;53.536;10.224;2022-12-18T15:56:41;37.25;;;17.42;;
38318;SDS011;24121;53.536;10.224;2022-12-18T15:59:25;34.83;;;16.80;;
38318;SDS011;24121;53.536;10.224;2022-12-18T16:01:51;40.10;;;19.05;;
38318;SDS011;24121;53.536;10.224;2022-12-18T16:04:18;39.38;;;16.35;;
38318;SDS011;24121;53.536;10.224;2022-12-18T16:06:45;36.65;;;17.52;;
38318;SDS011;24121;53.536;10.224;2022-12-18T16:09:11;38.85;;;17.13;;
38318;SDS011;24121;53.536;10.224;2022-12-18T16:11:36;40.35;;;17.27;;
38318;SDS011;24121;53.536;10.224;2022-12-18T16:16:45;37.03;;;16.63;;
38318;SDS011;24121;53.536;10.224;2022-12-18T16:19:11;38.47;;;18.27;;
38318;SDS011;24121;53.536;10.224;2022-12-18T16:21:37;36.53;;;16.98;;
38318;SDS011;24121;53.536;10.224;2022-12-18T16:24:02;34.40;;;17.88;;
38318;SDS011;24121;53.536;10.224;2022-12-18T16:26:28;34.20;;;17.00;;
38318;SDS011;24121;53.536;10.224;2022-12-18T16:28:53;32.95;;;16.55;;
38318;SDS011;24121;53.536;10.224;2022-12-18T16:31:19;37.42;;;17.65;;
38318;SDS011;24121;53.536;10.224;2022-12-18T16:33:44;33.35;;;16.15;;
38318;SDS011;24121;53.536;10.224;2022-12-18T16:36:09;32.53;;;16.95;;
38318;SDS011;24121;53.536;10.224;2022-12-18T16:38:35;34.00;;;15.77;;
38318;SDS011;24121;53.536;10.224;2022-12-18T16:41:00;33.75;;;17.02;;
38318;SDS011;24121;53.536;10.224;2022-12-18T16:43:44;35.63;;;16.60;;
38318;SDS011;24121;53.536;10.224;2022-12-18T16:46:09;37.20;;;17.52;;
38318;SDS011;24121;53.536;10.224;2022-12-18T16:48:34;34.40;;;16.98;;
38318;SDS011;24121;53.536;10.224;2022-12-18T16:51:00;38.75;;;18.65;;